createdAt,value
2017-08-25T00:01:20.443Z,51.77
2017-08-25T00:03:46.546Z,49.60
2017-08-25T00:06:12.659Z,45.60
2017-08-25T00:08:38.749Z,52.67
2017-08-25T00:11:04.875Z,45.03
2017-08-25T00:13:30.950Z,46.40
2017-08-25T00:15:57.014Z,47.60
2017-08-25T00:18:23.144Z,48.77
2017-08-25T00:20:49.202Z,49.63
2017-08-25T00:23:15.303Z,49.07
2017-08-25T00:25:41.481Z,48.70
2017-08-25T00:28:07.602Z,53.60
2017-08-25T00:30:33.673Z,50.23
2017-08-25T00:32:59.780Z,48.87
2017-08-25T00:35:25.865Z,48.27
2017-08-25T00:37:51.959Z,56.80
2017-08-25T00:40:18.115Z,52.00
2017-08-25T00:42:44.239Z,47.73
2017-08-25T00:45:10.320Z,46.13
2017-08-25T00:47:36.493Z,51.77
2017-08-25T00:50:02.600Z,51.03
2017-08-25T00:52:28.700Z,48.57
2017-08-25T00:54:54.810Z,48.80
2017-08-25T00:57:20.898Z,47.37
2017-08-25T00:59:46.976Z,50.77
2017-08-25T01:02:13.142Z,53.20
2017-08-25T01:04:39.286Z,52.53
2017-08-25T01:07:05.400Z,54.00
2017-08-25T01:09:31.489Z,49.40
2017-08-25T01:11:57.578Z,52.33
2017-08-25T01:14:23.653Z,49.30
2017-08-25T01:16:49.791Z,44.73
2017-08-25T01:19:15.892Z,45.93
2017-08-25T01:21:41.977Z,51.50
2017-08-25T01:24:08.157Z,47.47
2017-08-25T01:26:34.256Z,37.80
2017-08-25T01:29:00.374Z,41.43
2017-08-25T01:31:26.482Z,47.40
2017-08-25T01:33:52.557Z,46.03
2017-08-25T01:36:18.662Z,47.93
2017-08-25T01:38:44.778Z,41.60
2017-08-25T01:41:10.940Z,43.17
2017-08-25T01:43:37.011Z,54.97
2017-08-25T01:46:03.227Z,42.50
2017-08-25T01:48:29.308Z,45.63
2017-08-25T01:50:55.386Z,46.93
2017-08-25T01:53:21.508Z,38.17
2017-08-25T01:55:47.590Z,38.73
2017-08-25T01:58:13.677Z,39.40
2017-08-25T02:00:39.816Z,46.17
2017-08-25T02:03:05.921Z,41.87
2017-08-25T02:05:32.018Z,39.60
2017-08-25T02:07:58.120Z,49.70
2017-08-25T02:10:24.198Z,52.67
2017-08-25T02:12:50.257Z,41.07
2017-08-25T02:15:16.388Z,42.60
2017-08-25T02:17:42.462Z,47.50
2017-08-25T02:20:08.563Z,37.87
2017-08-25T02:22:34.672Z,35.23
2017-08-25T02:25:07.834Z,38.33
2017-08-25T02:27:33.935Z,45.00
2017-08-25T02:30:00.098Z,39.63
2017-08-25T02:32:26.202Z,43.43
2017-08-25T02:34:52.301Z,38.90
2017-08-25T02:37:18.431Z,35.33
2017-08-25T02:39:44.556Z,38.90
2017-08-25T02:42:10.661Z,40.40
2017-08-25T02:44:36.781Z,35.70
2017-08-25T02:47:02.882Z,38.23
2017-08-25T02:49:28.971Z,45.67
2017-08-25T02:51:55.140Z,42.50
2017-08-25T02:54:21.245Z,38.93
2017-08-25T02:56:47.336Z,40.47
2017-08-25T02:59:13.411Z,50.70
2017-08-25T03:01:39.500Z,50.27
2017-08-25T03:04:05.678Z,40.57
2017-08-25T03:06:31.789Z,46.37
2017-08-25T03:08:57.913Z,49.03
2017-08-25T03:11:24.013Z,44.90
2017-08-25T03:13:50.123Z,47.97
2017-08-25T03:16:16.247Z,47.10
2017-08-25T03:18:42.371Z,50.63
2017-08-25T03:21:08.493Z,54.10
2017-08-25T03:23:34.599Z,53.17
2017-08-25T03:26:00.701Z,52.43
2017-08-25T03:28:26.827Z,57.37
2017-08-25T03:30:52.980Z,55.70
2017-08-25T03:33:19.099Z,47.80
2017-08-25T03:35:45.199Z,49.23
2017-08-25T03:38:11.266Z,46.23
2017-08-25T03:40:37.336Z,48.43
2017-08-25T03:43:03.502Z,47.70
2017-08-25T03:45:29.595Z,42.73
2017-08-25T03:47:55.696Z,43.33
2017-08-25T03:50:21.805Z,39.83
2017-08-25T03:52:47.935Z,42.80
2017-08-25T03:55:14.013Z,36.53
2017-08-25T03:57:40.155Z,46.17
2017-08-25T04:00:06.275Z,39.97
2017-08-25T04:02:32.365Z,41.70
2017-08-25T04:04:58.483Z,41.17
2017-08-25T04:07:24.662Z,42.33
2017-08-25T04:09:50.751Z,41.13
2017-08-25T04:12:16.901Z,41.73
2017-08-25T04:14:42.969Z,45.37
2017-08-25T04:17:09.085Z,41.73
2017-08-25T04:19:35.321Z,40.30
2017-08-25T04:22:01.403Z,37.90
2017-08-25T04:24:27.493Z,36.57
2017-08-25T04:26:53.659Z,35.67
2017-08-25T04:29:19.775Z,45.77
2017-08-25T04:31:45.902Z,38.33
2017-08-25T04:34:12.033Z,40.33
2017-08-25T04:36:38.115Z,39.47
2017-08-25T04:39:04.239Z,44.10
2017-08-25T04:41:30.367Z,41.87
2017-08-25T04:43:56.479Z,44.93
2017-08-25T04:46:22.568Z,36.77
2017-08-25T04:48:48.731Z,40.33
2017-08-25T04:51:14.872Z,36.07
2017-08-25T04:53:40.975Z,38.37
2017-08-25T04:56:07.099Z,36.03
2017-08-25T04:58:33.257Z,35.93
2017-08-25T05:01:06.310Z,37.90
2017-08-25T05:03:32.413Z,38.27
2017-08-25T05:05:58.540Z,37.93
2017-08-25T05:08:24.690Z,34.37
2017-08-25T05:10:50.777Z,42.93
2017-08-25T05:13:16.849Z,36.70
2017-08-25T05:15:42.942Z,41.77
2017-08-25T05:18:09.014Z,28.00
2017-08-25T05:20:35.100Z,33.80
2017-08-25T05:23:01.219Z,42.97
2017-08-25T05:25:27.292Z,34.13
2017-08-25T05:27:53.385Z,43.43
2017-08-25T05:30:19.511Z,32.13
2017-08-25T05:32:45.639Z,35.53
2017-08-25T05:35:11.807Z,37.20
2017-08-25T05:37:37.936Z,30.60
2017-08-25T05:40:04.122Z,29.87
2017-08-25T05:42:30.205Z,37.20
2017-08-25T05:44:56.330Z,27.37
2017-08-25T05:47:22.421Z,32.23
2017-08-25T05:49:48.481Z,34.13
2017-08-25T05:52:14.603Z,25.50
2017-08-25T05:54:40.717Z,27.60
2017-08-25T05:57:06.809Z,29.67
2017-08-25T05:59:32.961Z,26.43
2017-08-25T06:01:59.072Z,31.73
2017-08-25T06:04:25.167Z,24.27
2017-08-25T06:06:51.327Z,30.17
2017-08-25T06:09:17.492Z,28.23
2017-08-25T06:11:43.592Z,26.00
2017-08-25T06:14:09.683Z,26.63
2017-08-25T06:16:35.795Z,34.17
2017-08-25T06:19:02.176Z,27.40
2017-08-25T06:21:28.273Z,26.13
2017-08-25T06:23:54.387Z,25.33
2017-08-25T06:26:20.535Z,21.60
2017-08-25T06:28:46.688Z,23.77
2017-08-25T06:31:12.829Z,26.30
2017-08-25T06:33:39.014Z,24.90
2017-08-25T06:36:05.145Z,26.70
2017-08-25T06:38:31.283Z,21.00
2017-08-25T06:40:57.413Z,23.27
2017-08-25T06:43:23.551Z,28.23
2017-08-25T06:45:49.665Z,18.73
2017-08-25T06:48:15.775Z,22.07
2017-08-25T06:50:41.881Z,29.87
2017-08-25T06:53:08.009Z,20.07
2017-08-25T06:55:34.071Z,22.53
2017-08-25T06:58:00.182Z,17.63
2017-08-25T07:00:26.329Z,21.73
2017-08-25T07:02:52.410Z,24.77
2017-08-25T07:05:18.516Z,21.63
2017-08-25T07:07:44.583Z,29.10
2017-08-25T07:10:10.701Z,22.30
2017-08-25T07:12:36.814Z,25.00
2017-08-25T07:15:02.917Z,24.20
2017-08-25T07:17:28.993Z,20.53
2017-08-25T07:19:55.109Z,22.77
2017-08-25T07:22:21.250Z,24.00
2017-08-25T07:24:47.441Z,21.30
2017-08-25T07:27:13.523Z,19.47
2017-08-25T07:29:39.630Z,22.90
2017-08-25T07:32:05.746Z,18.73
2017-08-25T07:34:31.863Z,27.03
2017-08-25T07:36:57.937Z,30.13
2017-08-25T07:39:24.053Z,22.83
2017-08-25T07:41:50.145Z,24.83
2017-08-25T07:44:16.249Z,22.67
2017-08-25T07:46:42.353Z,25.23
2017-08-25T07:49:08.477Z,25.20
2017-08-25T07:51:34.547Z,27.40
2017-08-25T07:54:00.632Z,26.70
2017-08-25T07:56:26.787Z,31.53
2017-08-25T07:58:52.836Z,30.17
2017-08-25T08:01:19.074Z,27.07
2017-08-25T08:03:45.165Z,29.50
2017-08-25T08:06:11.254Z,42.70
2017-08-25T08:08:38.235Z,23.77
2017-08-25T08:11:04.320Z,33.13
2017-08-25T08:13:30.416Z,29.80
2017-08-25T08:15:56.521Z,29.93
2017-08-25T08:18:22.607Z,26.03
2017-08-25T08:20:48.724Z,36.63
2017-08-25T08:23:14.846Z,30.57
2017-08-25T08:25:41.012Z,29.17
2017-08-25T08:28:07.124Z,29.53
2017-08-25T08:30:33.214Z,29.03
2017-08-25T08:32:59.294Z,27.30
2017-08-25T08:35:25.470Z,30.33
2017-08-25T08:37:51.545Z,28.40
2017-08-25T08:40:17.622Z,27.97
2017-08-25T08:42:43.779Z,27.33
2017-08-25T08:45:09.877Z,27.10
2017-08-25T08:47:35.960Z,33.47
2017-08-25T08:50:02.092Z,30.73
2017-08-25T08:52:28.177Z,26.10
2017-08-25T08:54:54.326Z,27.60
2017-08-25T08:57:20.431Z,30.40
2017-08-25T08:59:46.507Z,27.70
2017-08-25T09:02:12.613Z,27.47
2017-08-25T09:04:38.717Z,28.80
2017-08-25T09:07:04.810Z,33.30
2017-08-25T09:09:30.947Z,26.00
2017-08-25T09:11:57.051Z,28.10
2017-08-25T09:14:23.145Z,20.40
2017-08-25T09:16:49.251Z,20.83
2017-08-25T09:19:15.360Z,18.13
2017-08-25T09:21:41.485Z,17.00
2017-08-25T09:24:07.642Z,18.50
2017-08-25T09:26:33.741Z,24.63
2017-08-25T09:28:59.806Z,22.43
2017-08-25T09:31:25.951Z,18.90
2017-08-25T09:33:52.034Z,15.40
2017-08-25T09:36:18.136Z,22.40
2017-08-25T09:38:44.227Z,15.80
2017-08-25T09:41:10.348Z,10.67
2017-08-25T09:43:36.448Z,16.00
2017-08-25T09:46:02.535Z,15.83
2017-08-25T09:48:28.648Z,12.50
2017-08-25T09:50:54.824Z,10.47
2017-08-25T09:53:20.926Z,13.80
2017-08-25T09:55:47.044Z,18.33
2017-08-25T09:58:13.194Z,14.10
2017-08-25T10:00:39.282Z,13.80
2017-08-25T10:03:05.384Z,17.17
2017-08-25T10:05:31.534Z,13.20
2017-08-25T10:07:57.663Z,16.00
2017-08-25T10:10:23.746Z,14.80
2017-08-25T10:12:49.860Z,13.57
2017-08-25T10:15:15.956Z,16.03
2017-08-25T10:17:42.066Z,10.67
2017-08-25T10:20:08.236Z,11.57
2017-08-25T10:22:34.316Z,19.67
2017-08-25T10:25:00.440Z,11.37
2017-08-25T10:27:26.546Z,13.67
2017-08-25T10:29:52.700Z,12.60
2017-08-25T10:32:18.822Z,12.10
2017-08-25T10:35:03.607Z,13.70
2017-08-25T10:37:48.338Z,10.97
2017-08-25T10:43:54.207Z,15.57
2017-08-25T10:46:20.313Z,14.07
2017-08-25T10:48:46.411Z,10.50
2017-08-25T10:51:12.543Z,14.93
2017-08-25T10:53:38.676Z,9.70
2017-08-25T10:56:04.773Z,10.73
2017-08-25T10:58:30.867Z,12.53
2017-08-25T11:00:56.973Z,12.17
2017-08-25T11:03:23.106Z,11.23
2017-08-25T11:05:49.268Z,10.97
2017-08-25T11:08:18.563Z,9.17
2017-08-25T11:10:44.693Z,12.47
2017-08-25T11:13:10.843Z,13.27
2017-08-25T11:15:36.958Z,13.07
2017-08-25T11:18:03.075Z,11.03
2017-08-25T11:20:29.261Z,10.60
2017-08-25T11:22:55.385Z,14.60
2017-08-25T11:25:21.678Z,8.83
2017-08-25T11:27:48.666Z,8.00
2017-08-25T11:30:14.753Z,13.80
2017-08-25T11:32:40.943Z,10.03
2017-08-25T11:35:07.055Z,8.90
2017-08-25T11:37:33.171Z,11.07
2017-08-25T11:39:59.255Z,9.17
2017-08-25T11:42:25.382Z,6.77
2017-08-25T11:44:51.502Z,6.60
2017-08-25T11:47:17.709Z,6.70
2017-08-25T11:49:43.822Z,12.67
2017-08-25T11:52:09.936Z,10.20
2017-08-25T11:54:36.048Z,7.57
2017-08-25T11:57:02.165Z,6.10
2017-08-25T11:59:28.224Z,8.43
2017-08-25T12:01:54.367Z,7.90
2017-08-25T12:04:20.476Z,6.97
2017-08-25T12:06:46.583Z,6.20
2017-08-25T12:09:12.660Z,9.80
2017-08-25T12:11:39.513Z,8.47
2017-08-25T12:14:05.702Z,5.70
2017-08-25T12:16:31.886Z,6.87
2017-08-25T12:18:58.012Z,7.23
2017-08-25T12:21:24.093Z,8.03
2017-08-25T12:23:50.316Z,10.50
2017-08-25T12:26:16.448Z,15.07
2017-08-25T12:28:42.534Z,8.30
2017-08-25T12:31:08.641Z,7.23
2017-08-25T12:33:35.788Z,7.03
2017-08-25T12:36:01.997Z,5.30
2017-08-25T12:38:28.248Z,6.10
2017-08-25T12:40:54.509Z,12.50
2017-08-25T12:43:20.664Z,5.03
2017-08-25T12:45:46.903Z,6.03
2017-08-25T12:48:13.134Z,3.73
2017-08-25T12:50:39.349Z,4.23
2017-08-25T12:53:05.510Z,7.80
2017-08-25T12:55:31.674Z,4.20
2017-08-25T12:57:57.900Z,12.30
2017-08-25T13:00:24.072Z,4.93
2017-08-25T13:02:50.210Z,4.13
2017-08-25T13:05:16.282Z,6.73
2017-08-25T13:07:42.406Z,6.03
2017-08-25T13:10:08.502Z,4.60
2017-08-25T13:12:34.629Z,8.40
2017-08-25T13:15:00.722Z,7.40
2017-08-25T13:17:26.842Z,4.47
2017-08-25T13:19:52.942Z,9.87
2017-08-25T13:22:19.206Z,4.23
2017-08-25T13:24:45.294Z,9.33
2017-08-25T13:27:11.442Z,7.00
2017-08-25T13:29:37.550Z,4.37
2017-08-25T13:32:03.632Z,3.20
2017-08-25T13:34:29.718Z,5.90
2017-08-25T13:36:56.350Z,9.10
2017-08-25T13:39:22.405Z,4.30
2017-08-25T13:41:48.518Z,5.07
2017-08-25T13:44:14.673Z,14.90
2017-08-25T13:46:40.773Z,4.30
2017-08-25T13:49:06.860Z,4.20
2017-08-25T13:51:32.938Z,3.33
2017-08-25T13:53:59.041Z,8.77
2017-08-25T13:56:25.179Z,4.10
2017-08-25T13:58:51.276Z,8.37
2017-08-25T14:01:17.374Z,10.00
2017-08-25T14:03:43.524Z,3.50
2017-08-25T14:06:09.597Z,3.83
2017-08-25T14:08:35.722Z,3.47
2017-08-25T14:11:01.808Z,4.40
2017-08-25T14:13:27.908Z,4.37
2017-08-25T14:15:54.061Z,8.30
2017-08-25T14:18:20.174Z,6.77
2017-08-25T14:20:46.539Z,7.07
2017-08-25T14:23:12.632Z,3.80
2017-08-25T14:25:38.744Z,3.83
2017-08-25T14:28:04.816Z,7.00
2017-08-25T14:30:30.890Z,3.57
2017-08-25T14:32:57.230Z,4.43
2017-08-25T14:35:23.355Z,3.23
2017-08-25T14:37:49.448Z,7.70
2017-08-25T14:40:15.540Z,5.10
2017-08-25T14:42:41.679Z,6.70
2017-08-25T14:45:07.801Z,3.47
2017-08-25T14:47:33.907Z,4.83
2017-08-25T14:50:00.008Z,5.93
2017-08-25T14:52:26.131Z,8.70
2017-08-25T14:54:52.294Z,7.37
2017-08-25T14:57:18.411Z,7.00
2017-08-25T14:59:44.541Z,2.80
2017-08-25T15:02:10.705Z,3.93
2017-08-25T15:04:37.758Z,5.33
2017-08-25T15:07:03.878Z,2.77
2017-08-25T15:09:30.038Z,4.87
2017-08-25T15:11:56.185Z,7.50
2017-08-25T15:14:22.319Z,6.10
2017-08-25T15:16:48.443Z,5.90
2017-08-25T15:19:14.558Z,3.87
2017-08-25T15:21:40.672Z,4.57
2017-08-25T15:24:06.829Z,3.30
2017-08-25T15:26:32.941Z,3.13
2017-08-25T15:28:59.101Z,6.90
2017-08-25T15:31:25.210Z,3.27
2017-08-25T15:33:51.353Z,4.00
2017-08-25T15:36:17.458Z,2.60
2017-08-25T15:38:43.579Z,3.93
2017-08-25T15:41:09.639Z,5.93
2017-08-25T15:43:35.732Z,5.53
2017-08-25T15:46:01.806Z,5.20
2017-08-25T15:48:27.928Z,8.67
2017-08-25T15:50:54.116Z,6.47
2017-08-25T15:53:20.203Z,6.60
2017-08-25T15:55:46.325Z,11.77
2017-08-25T15:58:12.417Z,4.37
2017-08-25T16:00:38.559Z,7.00
2017-08-25T16:03:04.673Z,7.67
2017-08-25T16:05:30.772Z,4.40
2017-08-25T16:07:56.865Z,5.60
2017-08-25T16:10:23.011Z,6.73
2017-08-25T16:12:49.078Z,7.60
2017-08-25T16:15:15.187Z,4.80
2017-08-25T16:17:41.258Z,8.77
2017-08-25T16:20:07.363Z,8.30
2017-08-25T16:22:33.525Z,5.10
2017-08-25T16:24:59.606Z,4.57
2017-08-25T16:27:25.797Z,5.93
2017-08-25T16:29:51.868Z,8.50
2017-08-25T16:32:17.971Z,8.27
2017-08-25T16:34:44.088Z,6.60
2017-08-25T16:37:10.143Z,9.73
2017-08-25T16:39:36.257Z,7.17
2017-08-25T16:42:02.396Z,5.77
2017-08-25T16:44:28.504Z,7.67
2017-08-25T16:46:54.630Z,7.57
2017-08-25T16:49:20.746Z,5.57
2017-08-25T16:51:46.846Z,8.70
2017-08-25T16:54:12.934Z,7.13
2017-08-25T16:56:39.032Z,11.57
2017-08-25T16:59:05.150Z,6.63
2017-08-25T17:01:31.226Z,10.30
2017-08-25T17:03:57.527Z,5.33
2017-08-25T17:06:23.647Z,8.70
2017-08-25T17:08:49.770Z,8.17
2017-08-25T17:11:16.114Z,13.10
2017-08-25T17:13:42.219Z,5.43
2017-08-25T17:16:08.302Z,17.60
2017-08-25T17:18:34.399Z,10.83
2017-08-25T17:21:00.520Z,9.23
2017-08-25T17:23:26.594Z,13.20
2017-08-25T17:25:52.696Z,8.77
2017-08-25T17:28:18.799Z,10.73
2017-08-25T17:30:44.922Z,8.47
2017-08-25T17:33:11.046Z,8.23
2017-08-25T17:35:37.145Z,8.83
2017-08-25T17:38:03.282Z,9.83
2017-08-25T17:40:29.399Z,12.47
2017-08-25T17:42:55.482Z,8.70
2017-08-25T17:45:21.552Z,16.03
2017-08-25T17:47:47.706Z,12.10
2017-08-25T17:50:13.842Z,14.47
2017-08-25T17:52:39.914Z,14.40
2017-08-25T17:55:06.284Z,8.73
2017-08-25T17:57:32.364Z,13.77
2017-08-25T17:59:58.433Z,9.77
2017-08-25T18:02:24.695Z,7.17
2017-08-25T18:04:50.796Z,15.03
2017-08-25T18:07:16.946Z,15.13
2017-08-25T18:09:43.088Z,16.37
2017-08-25T18:12:09.219Z,14.10
2017-08-25T18:14:35.311Z,15.13
2017-08-25T18:17:01.420Z,23.53
2017-08-25T18:19:27.498Z,12.13
2017-08-25T18:21:53.601Z,20.40
2017-08-25T18:24:19.802Z,16.10
2017-08-25T18:26:45.952Z,12.53
2017-08-25T18:29:12.077Z,15.03
2017-08-25T18:31:38.161Z,18.30
2017-08-25T18:34:04.257Z,22.30
2017-08-25T18:36:30.367Z,20.80
2017-08-25T18:38:56.483Z,13.83
2017-08-25T18:41:22.582Z,11.10
2017-08-25T18:43:48.700Z,15.50
2017-08-25T18:46:14.795Z,22.90
2017-08-25T18:48:40.875Z,18.87
2017-08-25T18:51:06.985Z,26.83
2017-08-25T18:53:33.055Z,33.67
2017-08-25T18:55:59.133Z,37.57
2017-08-25T18:58:25.248Z,30.57
2017-08-25T19:00:51.343Z,28.20
2017-08-25T19:03:17.598Z,32.50
2017-08-25T19:05:43.719Z,24.33
2017-08-25T19:08:09.855Z,34.73
2017-08-25T19:10:36.181Z,65.03
2017-08-25T19:13:02.238Z,27.03
2017-08-25T19:15:28.317Z,26.47
2017-08-25T19:17:54.426Z,27.03
2017-08-25T19:20:20.505Z,18.93
2017-08-25T19:22:46.575Z,20.13
2017-08-25T19:25:12.674Z,16.33
2017-08-25T19:27:38.748Z,19.23
2017-08-25T19:30:04.832Z,22.23
2017-08-25T19:32:30.954Z,16.97
2017-08-25T19:34:57.055Z,22.63
2017-08-25T19:37:23.170Z,14.07
2017-08-25T19:39:49.301Z,19.23
2017-08-25T19:42:15.404Z,20.53
2017-08-25T19:44:41.518Z,19.43
2017-08-25T19:47:07.599Z,17.53
2017-08-25T19:49:33.691Z,23.73
2017-08-25T19:51:59.794Z,23.47
2017-08-25T19:54:25.920Z,31.73
2017-08-25T19:56:52.021Z,16.20
2017-08-25T19:59:18.141Z,20.40
2017-08-25T20:01:44.279Z,20.47
2017-08-25T20:04:10.389Z,15.03
2017-08-25T20:06:36.479Z,14.50
2017-08-25T20:09:02.607Z,15.37
2017-08-25T20:11:28.725Z,18.03
2017-08-25T20:13:54.790Z,20.33
2017-08-25T20:16:20.845Z,14.97
2017-08-25T20:18:46.981Z,17.23
2017-08-25T20:21:13.056Z,15.37
2017-08-25T20:23:39.164Z,18.30
2017-08-25T20:26:05.847Z,15.43
2017-08-25T20:28:31.904Z,22.83
2017-08-25T20:30:57.995Z,12.60
2017-08-25T20:33:26.097Z,15.03
2017-08-25T20:35:52.187Z,14.97
2017-08-25T20:38:18.290Z,15.10
2017-08-25T20:40:44.399Z,18.80
2017-08-25T20:43:10.529Z,18.17
2017-08-25T20:45:36.586Z,18.07
2017-08-25T20:48:02.684Z,19.43
2017-08-25T20:50:28.765Z,21.33
2017-08-25T20:52:54.855Z,22.60
2017-08-25T20:55:20.921Z,32.93
2017-08-25T20:57:47.022Z,23.83
2017-08-25T21:00:13.194Z,20.00
2017-08-25T21:02:39.437Z,16.80
2017-08-25T21:05:05.567Z,21.40
2017-08-25T21:07:31.695Z,20.57
2017-08-25T21:09:57.814Z,23.03
2017-08-25T21:12:24.075Z,14.73
2017-08-25T21:14:50.250Z,18.00
2017-08-25T21:17:16.327Z,17.37
2017-08-25T21:19:42.404Z,17.30
2017-08-25T21:22:08.475Z,20.13
2017-08-25T21:24:34.549Z,18.50
2017-08-25T21:27:00.638Z,19.53
2017-08-25T21:29:26.742Z,31.37
2017-08-25T21:31:52.839Z,22.70
2017-08-25T21:34:18.946Z,25.70
2017-08-25T21:36:45.008Z,34.73
2017-08-25T21:39:11.106Z,29.07
2017-08-25T21:41:37.227Z,27.97
2017-08-25T21:44:03.309Z,18.77
2017-08-25T21:46:29.417Z,18.43
2017-08-25T21:48:56.352Z,22.53
2017-08-25T21:51:22.480Z,20.63
2017-08-25T21:53:48.570Z,18.90
2017-08-25T21:56:14.668Z,22.73
2017-08-25T21:58:40.756Z,18.33
2017-08-25T22:01:06.920Z,18.67
2017-08-25T22:03:33.065Z,16.33
2017-08-25T22:05:59.272Z,22.33
2017-08-25T22:08:25.460Z,21.10
2017-08-25T22:10:51.574Z,17.40
2017-08-25T22:13:17.648Z,18.80
2017-08-25T22:15:43.758Z,17.90
2017-08-25T22:18:09.853Z,15.00
2017-08-25T22:20:35.953Z,18.50
2017-08-25T22:23:02.078Z,14.37
2017-08-25T22:25:28.186Z,17.90
2017-08-25T22:27:54.251Z,18.57
2017-08-25T22:30:20.378Z,18.97
2017-08-25T22:32:46.476Z,26.77
2017-08-25T22:35:12.545Z,15.70
2017-08-25T22:37:38.718Z,17.50
2017-08-25T22:40:04.799Z,17.80
2017-08-25T22:42:30.965Z,14.93
2017-08-25T22:44:57.073Z,21.67
2017-08-25T22:47:23.142Z,15.73
2017-08-25T22:49:49.242Z,17.63
2017-08-25T22:52:15.343Z,15.93
2017-08-25T22:54:41.435Z,17.10
2017-08-25T22:57:07.513Z,16.93
2017-08-25T22:59:33.604Z,18.80
2017-08-25T23:01:59.712Z,17.13
2017-08-25T23:04:25.841Z,18.20
2017-08-25T23:06:51.916Z,22.60
2017-08-25T23:09:18.064Z,18.47
2017-08-25T23:11:44.175Z,22.23
2017-08-25T23:14:10.302Z,19.10
2017-08-25T23:16:36.420Z,22.80
2017-08-25T23:19:02.513Z,22.27
2017-08-25T23:21:28.600Z,19.63
2017-08-25T23:23:54.707Z,20.70
2017-08-25T23:26:20.800Z,25.60
2017-08-25T23:28:46.902Z,23.03
2017-08-25T23:31:13.017Z,20.87
2017-08-25T23:33:39.077Z,24.00
2017-08-25T23:36:05.140Z,19.63
2017-08-25T23:38:31.226Z,19.80
2017-08-25T23:40:57.303Z,21.73
2017-08-25T23:43:23.429Z,25.00
2017-08-25T23:45:49.694Z,22.83
2017-08-25T23:48:15.776Z,24.97
2017-08-25T23:50:41.833Z,19.53
2017-08-25T23:53:07.928Z,20.07
2017-08-25T23:55:33.987Z,21.30
2017-08-25T23:58:00.080Z,21.47
